Time;durP1;ratioP1;P1;durP2;ratioP2;P2;SDS_P1;SDS_P2;PMS_P1;PMS_P2;Temp;Humidity;BMP_temperature;BMP_pressure;BME280_temperature;BME280_humidity;BME280_pressure;Samples;Min_cycle;Max_cycle;Signal;HPM_P1;HPM_P2
2022/04/08 00:02:23;;;;;;;6.13;1.30;;;;;;;;;;20755706;28;20412;-62
2022/04/08 00:12:25;;;;;;;2.17;1.02;;;;;;;;;;20753909;28;20094;-65
2022/04/08 00:22:28;;;;;;;7.10;1.10;;;;;;;;;;20755471;28;20045;-59
2022/04/08 00:32:29;;;;;;;3.72;1.10;;;;;;;;;;20754315;28;20132;-58
2022/04/08 00:42:31;;;;;;;3.08;1.30;;;;;;;;;;20753879;28;20062;-58
2022/04/08 00:52:34;;;;;;;4.95;1.30;;;;;;;;;;20753143;28;20139;-59
2022/04/08 01:02:36;;;;;;;4.05;1.17;;;;;;;;;;20753810;28;20518;-61
2022/04/08 01:12:38;;;;;;;6.20;1.10;;;;;;;;;;20751796;28;20054;-61
2022/04/08 01:22:44;;;;;;;3.00;1.20;;;;;;;;;;20748912;28;20045;-61
2022/04/08 01:32:55;;;;;;;4.10;1.83;;;;;;;;;;20749433;28;20057;-64
2022/04/08 01:43:07;;;;;;;2.97;1.10;;;;;;;;;;20748692;28;20046;-63
2022/04/08 01:53:09;;;;;;;3.20;1.77;;;;;;;;;;20747737;28;20061;-62
2022/04/08 02:03:20;;;;;;;3.90;1.50;;;;;;;;;;20747789;28;20415;-63
2022/04/08 02:13:27;;;;;;;3.78;1.13;;;;;;;;;;20747772;28;20057;-62
2022/04/08 02:23:32;;;;;;;3.05;1.48;;;;;;;;;;20746429;28;20056;-62
2022/04/08 02:33:35;;;;;;;2.72;1.20;;;;;;;;;;20749712;28;20516;-62
2022/04/08 02:43:39;;;;;;;5.43;1.50;;;;;;;;;;20761738;28;20042;-63
2022/04/08 02:53:41;;;;;;;2.72;1.10;;;;;;;;;;20760735;28;20049;-62
2022/04/08 03:03:44;;;;;;;2.05;1.10;;;;;;;;;;20760656;28;20183;-60
2022/04/08 03:13:46;;;;;;;4.93;1.60;;;;;;;;;;20760967;28;20480;-60
2022/04/08 03:23:49;;;;;;;3.33;1.48;;;;;;;;;;20758067;28;20054;-60
2022/04/08 03:33:51;;;;;;;4.15;1.65;;;;;;;;;;20757010;28;20046;-59
2022/04/08 03:43:53;;;;;;;5.88;1.30;;;;;;;;;;20755572;28;20045;-60
2022/04/08 03:53:54;;;;;;;3.83;1.55;;;;;;;;;;20756001;28;20050;-62
2022/04/08 04:03:57;;;;;;;3.40;1.50;;;;;;;;;;20754780;28;20049;-62
2022/04/08 04:13:59;;;;;;;2.80;1.25;;;;;;;;;;20754968;28;20089;-62
2022/04/08 04:24:02;;;;;;;3.83;1.58;;;;;;;;;;20753798;28;20416;-61
2022/04/08 04:34:05;;;;;;;3.50;1.70;;;;;;;;;;20753193;28;20057;-61
2022/04/08 04:44:07;;;;;;;3.58;2.13;;;;;;;;;;20752068;28;20057;-61
2022/04/08 04:54:09;;;;;;;7.63;2.42;;;;;;;;;;20749720;28;20056;-62
2022/04/08 05:04:11;;;;;;;6.40;2.28;;;;;;;;;;20749345;28;20400;-60
2022/04/08 05:14:14;;;;;;;5.03;2.10;;;;;;;;;;20749313;28;20116;-61
2022/04/08 05:24:17;;;;;;;7.43;2.03;;;;;;;;;;20748859;28;20049;-61
2022/04/08 05:34:20;;;;;;;6.82;2.13;;;;;;;;;;20748470;28;20412;-61
2022/04/08 05:44:21;;;;;;;3.85;2.15;;;;;;;;;;20747477;28;20058;-60
2022/04/08 05:54:23;;;;;;;5.10;2.55;;;;;;;;;;20747553;28;20511;-61
2022/04/08 06:04:25;;;;;;;6.18;2.05;;;;;;;;;;20746910;28;20042;-61
2022/04/08 06:14:27;;;;;;;4.72;2.40;;;;;;;;;;20760151;28;20057;-60
2022/04/08 06:24:29;;;;;;;5.82;2.22;;;;;;;;;;20762503;28;20042;-62
2022/04/08 06:34:31;;;;;;;5.65;2.50;;;;;;;;;;20761339;28;20061;-61
2022/04/08 06:44:33;;;;;;;7.40;2.65;;;;;;;;;;20761462;28;20058;-63
2022/04/08 06:54:35;;;;;;;9.95;2.83;;;;;;;;;;20760245;28;20136;-61
2022/04/08 07:04:37;;;;;;;7.40;2.30;;;;;;;;;;20760726;28;20069;-61
2022/04/08 07:14:39;;;;;;;7.20;3.70;;;;;;;;;;20759104;28;20120;-63
2022/04/08 07:24:41;;;;;;;8.35;3.80;;;;;;;;;;20757817;28;20127;-61
2022/04/08 07:34:43;;;;;;;5.30;2.17;;;;;;;;;;20758331;28;20412;-60
2022/04/08 07:44:45;;;;;;;6.38;2.38;;;;;;;;;;20756684;28;20046;-63
2022/04/08 07:54:47;;;;;;;6.60;1.63;;;;;;;;;;20753777;28;20053;-61
2022/04/08 08:04:50;;;;;;;4.18;1.40;;;;;;;;;;20755525;28;20050;-62
2022/04/08 08:14:52;;;;;;;4.70;1.33;;;;;;;;;;20754753;28;20058;-62
2022/04/08 08:24:55;;;;;;;5.45;1.50;;;;;;;;;;20754575;28;20049;-62
2022/04/08 08:34:56;;;;;;;3.55;1.58;;;;;;;;;;20753162;28;20060;-62
2022/04/08 08:44:58;;;;;;;4.07;1.50;;;;;;;;;;20751541;28;20050;-63
2022/04/08 08:55:04;;;;;;;4.80;1.60;;;;;;;;;;20750550;28;20100;-62
2022/04/08 09:05:18;;;;;;;3.17;1.40;;;;;;;;;;20750318;28;20100;-63
2022/04/08 09:15:20;;;;;;;2.05;1.08;;;;;;;;;;20749844;28;20132;-61
2022/04/08 09:25:25;;;;;;;6.88;1.45;;;;;;;;;;20749816;28;20407;-62
2022/04/08 09:35:27;;;;;;;8.35;1.90;;;;;;;;;;20748265;28;20080;-62
2022/04/08 09:45:32;;;;;;;4.05;1.30;;;;;;;;;;20746996;28;20485;-61
2022/04/08 09:55:35;;;;;;;5.75;1.70;;;;;;;;;;20744646;28;20053;-63
2022/04/08 10:05:38;;;;;;;4.38;1.45;;;;;;;;;;20744590;28;20552;-61
2022/04/08 10:15:44;;;;;;;4.40;1.65;;;;;;;;;;20745775;28;20085;-65
2022/04/08 10:25:48;;;;;;;4.88;1.55;;;;;;;;;;20746204;28;20049;-61
2022/04/08 10:35:54;;;;;;;5.93;3.00;;;;;;;;;;20745038;28;20455;-63
2022/04/08 10:45:58;;;;;;;5.40;2.00;;;;;;;;;;20745852;28;20148;-63
2022/04/08 10:56:13;;;;;;;5.82;1.48;;;;;;;;;;20751166;28;20053;-64
2022/04/08 11:06:19;;;;;;;3.03;1.60;;;;;;;;;;20759333;28;20050;-64
2022/04/08 11:16:21;;;;;;;3.42;1.40;;;;;;;;;;20758443;28;20053;-63
2022/04/08 11:26:23;;;;;;;3.63;1.45;;;;;;;;;;20756741;28;20089;-65
2022/04/08 11:36:25;;;;;;;3.83;1.20;;;;;;;;;;20757779;28;20123;-61
2022/04/08 11:46:27;;;;;;;2.47;1.10;;;;;;;;;;20756437;28;20137;-63
2022/04/08 11:56:29;;;;;;;3.20;0.88;;;;;;;;;;20756270;28;20096;-63
2022/04/08 12:06:35;;;;;;;4.95;1.27;;;;;;;;;;20754066;28;20144;-64
2022/04/08 12:16:39;;;;;;;4.55;1.05;;;;;;;;;;20753853;28;20546;-62
2022/04/08 12:26:40;;;;;;;1.98;0.60;;;;;;;;;;20754411;28;20077;-62
2022/04/08 12:36:43;;;;;;;5.75;1.00;;;;;;;;;;20751833;28;20140;-64
2022/04/08 12:46:45;;;;;;;4.10;0.52;;;;;;;;;;20751561;28;20057;-63
2022/04/08 12:56:47;;;;;;;3.03;0.70;;;;;;;;;;20751602;28;20090;-65
2022/04/08 13:06:50;;;;;;;1.38;0.65;;;;;;;;;;20750002;28;20054;-66
2022/04/08 13:16:51;;;;;;;3.45;0.90;;;;;;;;;;20751017;28;20053;-64
2022/04/08 13:26:53;;;;;;;4.60;0.70;;;;;;;;;;20748896;28;20050;-63
2022/04/08 13:36:56;;;;;;;2.75;0.70;;;;;;;;;;20746336;28;20046;-63
2022/04/08 13:46:58;;;;;;;2.28;0.73;;;19.00;44.30;;;;;;20746703;28;20046;-66
2022/04/08 13:57:00;;;;;;;5.10;0.98;;;17.80;46.90;;;;;;20746752;28;20049;-65
2022/04/08 14:07:02;;;;;;;3.25;0.65;;;17.90;47.30;;;;;;20746304;28;20541;-65
2022/04/08 14:17:04;;;;;;;1.75;0.80;;;18.00;47.20;;;;;;20747191;28;20108;-63
2022/04/08 14:27:05;;;;;;;2.10;0.68;;;18.70;45.40;;;;;;20745759;28;20062;-63
2022/04/08 14:37:07;;;;;;;2.45;0.80;;;18.90;44.80;;;;;;20758681;28;20092;-65
2022/04/08 14:47:09;;;;;;;1.80;0.70;;;18.20;46.80;;;;;;20759502;28;20108;-66
2022/04/08 14:57:11;;;;;;;2.00;1.00;;;;;;;;;;20758218;28;20440;-65
2022/04/08 15:07:13;;;;;;;3.55;0.80;;;;;;;;;;20760603;28;20049;-62
2022/04/08 15:17:15;;;;;;;3.38;0.70;;;;;;;;;;20759158;28;20050;-62
2022/04/08 15:27:21;;;;;;;4.68;1.10;;;;;;;;;;20758278;28;20124;-61
2022/04/08 15:37:23;;;;;;;1.92;0.75;;;;;;;;;;20757474;28;20049;-60
2022/04/08 15:47:25;;;;;;;6.00;0.65;;;;;;;;;;20755354;28;20388;-64
2022/04/08 15:57:31;;;;;;;4.53;1.02;;;;;;;;;;20757436;28;20058;-65
2022/04/08 16:07:33;;;;;;;1.80;0.95;;;;;;;;;;20755106;28;20054;-60
2022/04/08 16:17:35;;;;;;;2.55;0.75;;;;;;;;;;20753394;28;20503;-61
2022/04/08 16:27:38;;;;;;;1.73;0.60;;;;;;;;;;20752514;28;20097;-61
2022/04/08 16:37:41;;;;;;;2.25;0.88;;;;;;;;;;20752308;28;20061;-58
2022/04/08 16:47:45;;;;;;;4.63;0.80;;;19.50;45.50;;;;;;20752719;28;20053;-62
2022/04/08 16:57:47;;;;;;;0.85;0.52;;;18.20;48.90;;;;;;20748873;28;20397;-63
2022/04/08 17:07:48;;;;;;;2.90;0.70;;;18.00;48.80;;;;;;20750912;28;20515;-59
2022/04/08 17:17:50;;;;;;;2.72;0.60;;;17.70;49.70;;;;;;20749433;28;20491;-63
2022/04/08 17:27:52;;;;;;;2.90;0.85;;;17.40;50.60;;;;;;20748401;28;20053;-60
2022/04/08 17:37:54;;;;;;;3.38;0.90;;;17.20;51.30;;;;;;20746517;28;20084;-64
2022/04/08 17:48:00;;;;;;;4.28;1.08;;;17.00;51.80;;;;;;20747456;28;20073;-59
2022/04/08 17:58:02;;;;;;;2.22;0.93;;;;;;;;;;20746053;28;20058;-60
2022/04/08 18:08:06;;;;;;;2.70;0.68;;;;;;;;;;20744718;28;20484;-66
2022/04/08 18:18:09;;;;;;;3.67;0.95;;;;;;;;;;20745454;28;20053;-63
2022/04/08 18:28:11;;;;;;;3.20;0.80;;;;;;;;;;20745492;28;20046;-59
2022/04/08 18:38:13;;;;;;;3.47;1.00;;;;;;;;;;20744784;28;20181;-62
2022/04/08 18:48:15;;;;;;;4.82;1.77;;;;;;;;;;20745394;28;20050;-63
2022/04/08 18:58:18;;;;;;;3.17;0.80;;;;;;;;;;20746197;28;20048;-62
2022/04/08 19:08:20;;;;;;;6.05;1.92;;;;;;;;;;20750008;28;20085;-62
2022/04/08 19:18:22;;;;;;;2.88;1.05;;;;;;;;;;20753732;28;20053;-63
2022/04/08 19:28:24;;;;;;;5.25;1.10;;;;;;;;;;20757966;28;20140;-61
2022/04/08 19:38:29;;;;;;;5.25;1.20;;;;;;;;;;20756738;28;20046;-63
2022/04/08 19:48:31;;;;;;;5.10;1.60;;;;;;;;;;20756777;28;20481;-61
2022/04/08 19:58:33;;;;;;;5.15;1.20;;;;;;;;;;20755855;28;20420;-62
2022/04/08 20:08:35;;;;;;;5.25;1.00;;;;;;;;;;20755546;28;20050;-61
2022/04/08 20:18:37;;;;;;;3.20;1.08;;;;;;;;;;20753759;28;20087;-62
2022/04/08 20:28:39;;;;;;;3.72;1.20;;;;;;;;;;20752403;28;20058;-62
2022/04/08 20:38:42;;;;;;;3.03;1.10;;;;;;;;;;20752330;28;20064;-62
2022/04/08 20:48:44;;;;;;;5.18;1.35;;;;;;;;;;20752570;28;20050;-63
2022/04/08 20:58:48;;;;;;;5.43;1.30;;;;;;;;;;20752616;28;20046;-61
2022/04/08 21:08:50;;;;;;;2.33;1.10;;;;;;;;;;20750808;28;20057;-61
2022/04/08 21:18:57;;;;;;;2.92;1.15;;;;;;;;;;20751852;28;20053;-63
2022/04/08 21:28:59;;;;;;;3.65;1.25;;;;;;;;;;20750425;28;20046;-63
2022/04/08 21:39:02;;;;;;;2.17;1.20;;;;;;;;;;20748881;28;20108;-62
2022/04/08 21:49:06;;;;;;;4.28;1.02;;;;;;;;;;20748523;28;20063;-63
2022/04/08 21:59:09;;;;;;;3.85;1.40;;;;;;;;;;20748231;28;20459;-62
2022/04/08 22:09:11;;;;;;;3.60;0.70;;;;;;;;;;20747841;28;20103;-62
2022/04/08 22:19:13;;;;;;;3.85;0.82;;;;;;;;;;20747996;28;20050;-62
2022/04/08 22:29:15;;;;;;;4.22;1.20;;;;;;;;;;20745004;28;20054;-62
2022/04/08 22:39:17;;;;;;;5.18;1.02;;;;;;;;;;20746276;28;20069;-62
2022/04/08 22:49:19;;;;;;;2.15;0.82;;;;;;;;;;20748685;28;20088;-62
2022/04/08 22:59:21;;;;;;;1.85;0.70;;;;;;;;;;20761535;28;20050;-62
2022/04/08 23:09:24;;;;;;;4.65;0.75;;;;;;;;;;20760639;28;20148;-60
2022/04/08 23:19:26;;;;;;;2.70;0.70;;;;;;;;;;20759550;28;20082;-62
2022/04/08 23:29:28;;;;;;;4.57;0.90;;;;;;;;;;20758295;28;20104;-61
2022/04/08 23:39:30;;;;;;;3.88;0.80;;;;;;;;;;20757203;28;20112;-61
2022/04/08 23:49:32;;;;;;;2.78;1.10;;;;;;;;;;20758392;28;20042;-63
2022/04/08 23:59:34;;;;;;;1.98;0.82;;;;;;;;;;20756283;28;20050;-63
